sensor_id;sensor_type;location;lat;lon;timestamp;P1;durP1;ratioP1;P2;durP2;ratioP2
25509;SDS011;13413;52.336;21.200;2023-02-04T00:08:57;26.40;;;15.90;;
25509;SDS011;13413;52.336;21.200;2023-02-04T00:11:51;23.80;;;15.50;;
25509;SDS011;13413;52.336;21.200;2023-02-04T00:14:45;26.40;;;16.40;;
25509;SDS011;13413;52.336;21.200;2023-02-04T00:17:39;22.10;;;14.80;;
25509;SDS011;13413;52.336;21.200;2023-02-04T00:20:33;26.60;;;15.70;;
25509;SDS011;13413;52.336;21.200;2023-02-04T00:23:27;23.20;;;14.50;;
25509;SDS011;13413;52.336;21.200;2023-02-04T00:26:21;23.90;;;14.90;;
25509;SDS011;13413;52.336;21.200;2023-02-04T00:29:15;20.70;;;14.30;;
25509;SDS011;13413;52.336;21.200;2023-02-04T00:32:08;22.10;;;14.00;;
25509;SDS011;13413;52.336;21.200;2023-02-04T00:35:02;23.10;;;15.00;;
25509;SDS011;13413;52.336;21.200;2023-02-04T00:37:56;22.90;;;14.70;;
25509;SDS011;13413;52.336;21.200;2023-02-04T00:40:50;21.30;;;14.50;;
25509;SDS011;13413;52.336;21.200;2023-02-04T00:43:44;26.40;;;14.80;;
25509;SDS011;13413;52.336;21.200;2023-02-04T00:46:38;23.50;;;15.50;;
25509;SDS011;13413;52.336;21.200;2023-02-04T00:49:33;21.90;;;15.10;;
25509;SDS011;13413;52.336;21.200;2023-02-04T00:52:27;23.80;;;15.60;;
25509;SDS011;13413;52.336;21.200;2023-02-04T00:55:21;23.10;;;15.20;;
25509;SDS011;13413;52.336;21.200;2023-02-04T00:58:15;25.60;;;15.80;;
25509;SDS011;13413;52.336;21.200;2023-02-04T01:01:09;25.90;;;16.90;;
25509;SDS011;13413;52.336;21.200;2023-02-04T01:04:03;22.50;;;13.40;;
25509;SDS011;13413;52.336;21.200;2023-02-04T01:06:58;20.60;;;14.40;;
25509;SDS011;13413;52.336;21.200;2023-02-04T01:09:52;16.60;;;11.10;;
25509;SDS011;13413;52.336;21.200;2023-02-04T01:12:46;17.30;;;11.40;;
25509;SDS011;13413;52.336;21.200;2023-02-04T01:15:40;25.20;;;14.70;;
25509;SDS011;13413;52.336;21.200;2023-02-04T01:18:34;20.90;;;14.30;;
25509;SDS011;13413;52.336;21.200;2023-02-04T01:21:28;22.40;;;13.60;;
25509;SDS011;13413;52.336;21.200;2023-02-04T01:24:22;20.50;;;14.40;;
25509;SDS011;13413;52.336;21.200;2023-02-04T01:27:16;13.70;;;10.40;;
25509;SDS011;13413;52.336;21.200;2023-02-04T01:30:11;26.60;;;15.70;;
25509;SDS011;13413;52.336;21.200;2023-02-04T01:33:06;18.20;;;12.40;;
25509;SDS011;13413;52.336;21.200;2023-02-04T01:36:00;21.00;;;13.10;;
25509;SDS011;13413;52.336;21.200;2023-02-04T01:38:54;18.50;;;12.90;;
25509;SDS011;13413;52.336;21.200;2023-02-04T01:41:48;18.20;;;12.60;;
25509;SDS011;13413;52.336;21.200;2023-02-04T01:44:42;18.20;;;13.00;;
25509;SDS011;13413;52.336;21.200;2023-02-04T01:47:36;16.90;;;12.20;;
25509;SDS011;13413;52.336;21.200;2023-02-04T01:53:37;19.30;;;11.50;;
25509;SDS011;13413;52.336;21.200;2023-02-04T01:59:40;17.20;;;11.80;;
25509;SDS011;13413;52.336;21.200;2023-02-04T02:02:42;16.30;;;11.40;;
25509;SDS011;13413;52.336;21.200;2023-02-04T02:05:39;17.50;;;11.40;;
25509;SDS011;13413;52.336;21.200;2023-02-04T02:08:35;16.90;;;10.50;;
25509;SDS011;13413;52.336;21.200;2023-02-04T02:14:23;14.90;;;10.00;;
25509;SDS011;13413;52.336;21.200;2023-02-04T02:17:17;14.50;;;9.80;;
25509;SDS011;13413;52.336;21.200;2023-02-04T02:31:45;13.20;;;10.20;;
25509;SDS011;13413;52.336;21.200;2023-02-04T02:34:39;12.20;;;9.30;;
25509;SDS011;13413;52.336;21.200;2023-02-04T02:37:35;12.30;;;9.30;;
25509;SDS011;13413;52.336;21.200;2023-02-04T02:40:29;10.20;;;7.20;;
25509;SDS011;13413;52.336;21.200;2023-02-04T02:43:24;12.20;;;9.30;;
25509;SDS011;13413;52.336;21.200;2023-02-04T02:46:19;14.10;;;10.00;;
25509;SDS011;13413;52.336;21.200;2023-02-04T02:49:14;13.30;;;10.10;;
25509;SDS011;13413;52.336;21.200;2023-02-04T02:52:11;14.70;;;10.10;;
25509;SDS011;13413;52.336;21.200;2023-02-04T02:58:03;14.80;;;9.10;;
25509;SDS011;13413;52.336;21.200;2023-02-04T03:01:04;14.10;;;10.60;;
25509;SDS011;13413;52.336;21.200;2023-02-04T03:03:59;15.00;;;10.60;;
25509;SDS011;13413;52.336;21.200;2023-02-04T03:06:53;18.40;;;10.80;;
25509;SDS011;13413;52.336;21.200;2023-02-04T03:09:47;20.00;;;9.70;;
25509;SDS011;13413;52.336;21.200;2023-02-04T03:12:41;10.50;;;8.10;;
25509;SDS011;13413;52.336;21.200;2023-02-04T03:15:35;11.40;;;7.90;;
25509;SDS011;13413;52.336;21.200;2023-02-04T03:18:30;14.00;;;9.80;;
25509;SDS011;13413;52.336;21.200;2023-02-04T03:24:17;15.40;;;9.80;;
25509;SDS011;13413;52.336;21.200;2023-02-04T03:27:11;9.80;;;7.00;;
25509;SDS011;13413;52.336;21.200;2023-02-04T03:30:08;12.70;;;9.10;;
25509;SDS011;13413;52.336;21.200;2023-02-04T03:33:02;12.60;;;9.10;;
25509;SDS011;13413;52.336;21.200;2023-02-04T03:35:56;14.90;;;9.60;;
25509;SDS011;13413;52.336;21.200;2023-02-04T03:38:53;11.80;;;8.70;;
25509;SDS011;13413;52.336;21.200;2023-02-04T03:41:47;14.00;;;9.60;;
25509;SDS011;13413;52.336;21.200;2023-02-04T03:44:42;14.50;;;9.50;;
25509;SDS011;13413;52.336;21.200;2023-02-04T03:47:36;16.00;;;9.80;;
25509;SDS011;13413;52.336;21.200;2023-02-04T03:53:41;14.40;;;8.50;;
25509;SDS011;13413;52.336;21.200;2023-02-04T03:56:35;14.90;;;8.70;;
25509;SDS011;13413;52.336;21.200;2023-02-04T03:59:29;13.00;;;9.30;;
25509;SDS011;13413;52.336;21.200;2023-02-04T04:02:23;10.80;;;7.80;;
25509;SDS011;13413;52.336;21.200;2023-02-04T04:05:17;8.70;;;6.80;;
25509;SDS011;13413;52.336;21.200;2023-02-04T04:08:11;9.60;;;7.40;;
25509;SDS011;13413;52.336;21.200;2023-02-04T04:11:05;7.70;;;6.40;;
25509;SDS011;13413;52.336;21.200;2023-02-04T04:13:59;12.20;;;7.90;;
25509;SDS011;13413;52.336;21.200;2023-02-04T04:16:53;12.90;;;8.70;;
25509;SDS011;13413;52.336;21.200;2023-02-04T04:20:09;8.50;;;6.10;;
25509;SDS011;13413;52.336;21.200;2023-02-04T04:23:03;10.90;;;8.10;;
25509;SDS011;13413;52.336;21.200;2023-02-04T04:29:04;15.00;;;9.40;;
25509;SDS011;13413;52.336;21.200;2023-02-04T04:32:01;14.50;;;9.20;;
25509;SDS011;13413;52.336;21.200;2023-02-04T04:34:55;14.90;;;9.70;;
25509;SDS011;13413;52.336;21.200;2023-02-04T04:37:49;15.90;;;9.30;;
25509;SDS011;13413;52.336;21.200;2023-02-04T04:46:46;13.90;;;9.90;;
25509;SDS011;13413;52.336;21.200;2023-02-04T04:49:40;15.30;;;10.10;;
25509;SDS011;13413;52.336;21.200;2023-02-04T04:52:34;13.70;;;9.60;;
25509;SDS011;13413;52.336;21.200;2023-02-04T04:55:28;14.60;;;10.00;;
25509;SDS011;13413;52.336;21.200;2023-02-04T04:58:22;17.10;;;9.80;;
25509;SDS011;13413;52.336;21.200;2023-02-04T05:01:16;10.30;;;7.70;;
25509;SDS011;13413;52.336;21.200;2023-02-04T05:04:10;9.30;;;6.80;;
25509;SDS011;13413;52.336;21.200;2023-02-04T05:07:04;15.40;;;11.20;;
25509;SDS011;13413;52.336;21.200;2023-02-04T05:10:12;19.50;;;12.60;;
25509;SDS011;13413;52.336;21.200;2023-02-04T05:13:08;21.40;;;13.40;;
25509;SDS011;13413;52.336;21.200;2023-02-04T05:16:03;21.70;;;11.50;;
25509;SDS011;13413;52.336;21.200;2023-02-04T05:18:58;16.30;;;10.70;;
25509;SDS011;13413;52.336;21.200;2023-02-04T05:21:52;16.50;;;10.30;;
25509;SDS011;13413;52.336;21.200;2023-02-04T05:24:46;12.50;;;7.80;;
25509;SDS011;13413;52.336;21.200;2023-02-04T05:27:40;16.60;;;9.60;;
25509;SDS011;13413;52.336;21.200;2023-02-04T05:30:34;14.80;;;9.40;;
25509;SDS011;13413;52.336;21.200;2023-02-04T05:33:28;9.00;;;6.60;;
25509;SDS011;13413;52.336;21.200;2023-02-04T05:36:22;13.60;;;9.50;;
25509;SDS011;13413;52.336;21.200;2023-02-04T05:39:16;13.60;;;8.90;;
25509;SDS011;13413;52.336;21.200;2023-02-04T05:42:10;13.40;;;9.00;;
25509;SDS011;13413;52.336;21.200;2023-02-04T05:45:03;13.50;;;9.60;;
25509;SDS011;13413;52.336;21.200;2023-02-04T05:47:58;19.90;;;11.10;;
25509;SDS011;13413;52.336;21.200;2023-02-04T05:50:52;13.50;;;9.70;;
25509;SDS011;13413;52.336;21.200;2023-02-04T05:53:46;15.30;;;9.20;;
25509;SDS011;13413;52.336;21.200;2023-02-04T05:56:40;17.30;;;9.70;;
25509;SDS011;13413;52.336;21.200;2023-02-04T05:59:34;9.30;;;5.90;;
25509;SDS011;13413;52.336;21.200;2023-02-04T06:02:28;17.10;;;10.10;;
25509;SDS011;13413;52.336;21.200;2023-02-04T06:05:22;16.00;;;10.50;;
25509;SDS011;13413;52.336;21.200;2023-02-04T06:08:16;14.20;;;9.40;;
25509;SDS011;13413;52.336;21.200;2023-02-04T06:11:10;15.60;;;9.50;;
25509;SDS011;13413;52.336;21.200;2023-02-04T06:14:04;12.50;;;8.80;;
25509;SDS011;13413;52.336;21.200;2023-02-04T06:16:58;12.00;;;7.10;;
25509;SDS011;13413;52.336;21.200;2023-02-04T06:20:11;13.40;;;9.10;;
25509;SDS011;13413;52.336;21.200;2023-02-04T06:23:06;13.30;;;9.00;;
25509;SDS011;13413;52.336;21.200;2023-02-04T06:26:00;13.60;;;9.10;;
25509;SDS011;13413;52.336;21.200;2023-02-04T06:28:54;17.00;;;9.40;;
25509;SDS011;13413;52.336;21.200;2023-02-04T06:31:48;21.90;;;14.20;;
25509;SDS011;13413;52.336;21.200;2023-02-04T06:34:42;18.60;;;12.20;;
25509;SDS011;13413;52.336;21.200;2023-02-04T06:37:36;17.60;;;10.60;;
25509;SDS011;13413;52.336;21.200;2023-02-04T06:40:30;16.70;;;11.30;;
25509;SDS011;13413;52.336;21.200;2023-02-04T06:43:24;12.40;;;9.50;;
25509;SDS011;13413;52.336;21.200;2023-02-04T06:46:18;12.20;;;8.20;;
25509;SDS011;13413;52.336;21.200;2023-02-04T06:49:12;10.10;;;6.50;;
25509;SDS011;13413;52.336;21.200;2023-02-04T06:52:06;11.80;;;8.90;;
25509;SDS011;13413;52.336;21.200;2023-02-04T06:55:00;20.80;;;10.40;;
25509;SDS011;13413;52.336;21.200;2023-02-04T07:07:06;29.00;;;15.60;;
25509;SDS011;13413;52.336;21.200;2023-02-04T07:09:59;19.70;;;10.90;;
25509;SDS011;13413;52.336;21.200;2023-02-04T07:12:52;15.20;;;8.70;;
25509;SDS011;13413;52.336;21.200;2023-02-04T07:15:45;16.60;;;10.00;;
25509;SDS011;13413;52.336;21.200;2023-02-04T07:18:38;14.20;;;8.40;;
25509;SDS011;13413;52.336;21.200;2023-02-04T07:21:31;10.50;;;6.90;;
25509;SDS011;13413;52.336;21.200;2023-02-04T07:24:24;15.80;;;9.20;;
25509;SDS011;13413;52.336;21.200;2023-02-04T07:27:17;47.70;;;21.10;;
25509;SDS011;13413;52.336;21.200;2023-02-04T07:30:11;110.30;;;45.10;;
25509;SDS011;13413;52.336;21.200;2023-02-04T07:33:05;61.80;;;27.10;;
25509;SDS011;13413;52.336;21.200;2023-02-04T07:35:57;42.30;;;19.80;;
25509;SDS011;13413;52.336;21.200;2023-02-04T07:38:50;39.40;;;16.50;;
25509;SDS011;13413;52.336;21.200;2023-02-04T07:41:43;32.20;;;14.00;;
25509;SDS011;13413;52.336;21.200;2023-02-04T07:44:36;30.10;;;13.10;;
25509;SDS011;13413;52.336;21.200;2023-02-04T07:47:29;31.30;;;13.50;;
25509;SDS011;13413;52.336;21.200;2023-02-04T07:50:22;30.40;;;12.00;;
25509;SDS011;13413;52.336;21.200;2023-02-04T07:53:15;21.30;;;10.60;;
25509;SDS011;13413;52.336;21.200;2023-02-04T07:56:08;18.00;;;9.50;;
25509;SDS011;13413;52.336;21.200;2023-02-04T07:59:01;17.70;;;7.30;;
25509;SDS011;13413;52.336;21.200;2023-02-04T08:01:54;16.50;;;8.70;;
25509;SDS011;13413;52.336;21.200;2023-02-04T08:04:47;24.70;;;11.90;;
25509;SDS011;13413;52.336;21.200;2023-02-04T08:07:40;15.10;;;6.90;;
25509;SDS011;13413;52.336;21.200;2023-02-04T08:10:33;12.90;;;6.70;;
25509;SDS011;13413;52.336;21.200;2023-02-04T08:13:26;20.60;;;9.90;;
25509;SDS011;13413;52.336;21.200;2023-02-04T08:16:19;16.70;;;10.10;;
25509;SDS011;13413;52.336;21.200;2023-02-04T08:19:12;16.40;;;8.80;;
25509;SDS011;13413;52.336;21.200;2023-02-04T08:22:05;16.20;;;7.40;;
25509;SDS011;13413;52.336;21.200;2023-02-04T08:24:58;24.60;;;12.30;;
25509;SDS011;13413;52.336;21.200;2023-02-04T08:27:50;15.80;;;7.80;;
25509;SDS011;13413;52.336;21.200;2023-02-04T08:30:43;13.20;;;7.40;;
25509;SDS011;13413;52.336;21.200;2023-02-04T08:33:36;10.00;;;6.60;;
25509;SDS011;13413;52.336;21.200;2023-02-04T08:36:29;10.10;;;6.70;;
25509;SDS011;13413;52.336;21.200;2023-02-04T08:39:23;24.60;;;12.90;;
25509;SDS011;13413;52.336;21.200;2023-02-04T08:42:16;22.30;;;11.30;;
25509;SDS011;13413;52.336;21.200;2023-02-04T08:45:09;17.70;;;9.70;;
25509;SDS011;13413;52.336;21.200;2023-02-04T08:48:03;21.20;;;14.00;;
25509;SDS011;13413;52.336;21.200;2023-02-04T08:50:55;16.80;;;9.70;;
25509;SDS011;13413;52.336;21.200;2023-02-04T09:01:41;25.60;;;11.40;;
25509;SDS011;13413;52.336;21.200;2023-02-04T09:04:34;20.80;;;9.10;;
25509;SDS011;13413;52.336;21.200;2023-02-04T09:07:28;14.50;;;6.50;;
25509;SDS011;13413;52.336;21.200;2023-02-04T09:10:23;17.30;;;6.70;;
25509;SDS011;13413;52.336;21.200;2023-02-04T09:13:17;14.00;;;6.70;;
25509;SDS011;13413;52.336;21.200;2023-02-04T09:16:11;9.80;;;5.30;;
25509;SDS011;13413;52.336;21.200;2023-02-04T09:19:04;8.90;;;5.10;;
25509;SDS011;13413;52.336;21.200;2023-02-04T09:21:59;12.40;;;6.50;;
25509;SDS011;13413;52.336;21.200;2023-02-04T09:24:52;19.90;;;7.60;;
25509;SDS011;13413;52.336;21.200;2023-02-04T09:27:47;15.40;;;6.60;;
25509;SDS011;13413;52.336;21.200;2023-02-04T09:30:41;24.30;;;10.00;;
25509;SDS011;13413;52.336;21.200;2023-02-04T09:33:36;18.50;;;7.80;;
25509;SDS011;13413;52.336;21.200;2023-02-04T09:36:30;21.50;;;9.30;;
25509;SDS011;13413;52.336;21.200;2023-02-04T09:39:24;20.70;;;9.50;;
25509;SDS011;13413;52.336;21.200;2023-02-04T09:42:18;16.20;;;7.30;;
25509;SDS011;13413;52.336;21.200;2023-02-04T09:45:14;10.60;;;5.30;;
25509;SDS011;13413;52.336;21.200;2023-02-04T09:48:17;5.90;;;3.90;;
25509;SDS011;13413;52.336;21.200;2023-02-04T09:51:12;10.50;;;5.10;;
25509;SDS011;13413;52.336;21.200;2023-02-04T09:54:12;10.20;;;5.30;;
25509;SDS011;13413;52.336;21.200;2023-02-04T09:57:09;13.60;;;7.30;;
25509;SDS011;13413;52.336;21.200;2023-02-04T10:00:13;9.50;;;4.80;;
25509;SDS011;13413;52.336;21.200;2023-02-04T10:03:10;16.90;;;7.10;;
25509;SDS011;13413;52.336;21.200;2023-02-04T10:06:08;16.40;;;7.50;;
25509;SDS011;13413;52.336;21.200;2023-02-04T10:09:03;10.70;;;4.50;;
25509;SDS011;13413;52.336;21.200;2023-02-04T10:11:57;7.10;;;4.60;;
25509;SDS011;13413;52.336;21.200;2023-02-04T10:15:11;11.30;;;6.40;;
25509;SDS011;13413;52.336;21.200;2023-02-04T10:18:08;9.20;;;5.20;;
25509;SDS011;13413;52.336;21.200;2023-02-04T10:21:07;10.70;;;6.30;;
25509;SDS011;13413;52.336;21.200;2023-02-04T10:24:09;12.00;;;7.30;;
25509;SDS011;13413;52.336;21.200;2023-02-04T10:27:07;8.90;;;6.40;;
25509;SDS011;13413;52.336;21.200;2023-02-04T10:30:02;8.10;;;5.40;;
25509;SDS011;13413;52.336;21.200;2023-02-04T10:32:56;12.90;;;5.50;;
25509;SDS011;13413;52.336;21.200;2023-02-04T10:35:52;8.50;;;5.30;;
25509;SDS011;13413;52.336;21.200;2023-02-04T10:38:59;7.30;;;5.20;;
25509;SDS011;13413;52.336;21.200;2023-02-04T10:42:01;9.40;;;5.10;;
25509;SDS011;13413;52.336;21.200;2023-02-04T10:44:56;8.80;;;5.20;;
25509;SDS011;13413;52.336;21.200;2023-02-04T10:47:51;8.50;;;5.90;;
25509;SDS011;13413;52.336;21.200;2023-02-04T10:50:48;9.40;;;6.10;;
25509;SDS011;13413;52.336;21.200;2023-02-04T10:53:42;10.70;;;6.60;;
25509;SDS011;13413;52.336;21.200;2023-02-04T10:56:37;11.10;;;6.20;;
25509;SDS011;13413;52.336;21.200;2023-02-04T10:59:30;12.70;;;5.70;;
25509;SDS011;13413;52.336;21.200;2023-02-04T11:02:36;6.40;;;4.40;;
25509;SDS011;13413;52.336;21.200;2023-02-04T11:05:35;9.00;;;5.50;;
25509;SDS011;13413;52.336;21.200;2023-02-04T11:08:30;11.40;;;5.80;;
25509;SDS011;13413;52.336;21.200;2023-02-04T11:11:27;16.00;;;6.60;;
25509;SDS011;13413;52.336;21.200;2023-02-04T11:20:11;10.90;;;6.30;;
25509;SDS011;13413;52.336;21.200;2023-02-04T11:23:28;11.60;;;6.70;;
25509;SDS011;13413;52.336;21.200;2023-02-04T11:26:32;11.80;;;6.80;;
25509;SDS011;13413;52.336;21.200;2023-02-04T11:29:29;42.80;;;18.60;;
25509;SDS011;13413;52.336;21.200;2023-02-04T11:32:29;35.20;;;17.20;;
25509;SDS011;13413;52.336;21.200;2023-02-04T11:35:26;20.70;;;10.30;;
25509;SDS011;13413;52.336;21.200;2023-02-04T11:38:25;14.80;;;8.20;;
25509;SDS011;13413;52.336;21.200;2023-02-04T11:41:23;15.10;;;8.40;;
25509;SDS011;13413;52.336;21.200;2023-02-04T11:44:20;9.90;;;6.00;;
25509;SDS011;13413;52.336;21.200;2023-02-04T11:47:17;15.20;;;6.90;;
25509;SDS011;13413;52.336;21.200;2023-02-04T11:50:14;11.40;;;6.40;;
25509;SDS011;13413;52.336;21.200;2023-02-04T11:53:11;12.40;;;7.30;;
25509;SDS011;13413;52.336;21.200;2023-02-04T11:56:06;15.10;;;7.70;;
25509;SDS011;13413;52.336;21.200;2023-02-04T11:59:08;15.30;;;8.00;;
25509;SDS011;13413;52.336;21.200;2023-02-04T12:02:05;15.90;;;7.40;;
25509;SDS011;13413;52.336;21.200;2023-02-04T12:05:09;21.80;;;10.90;;
25509;SDS011;13413;52.336;21.200;2023-02-04T12:11:28;31.20;;;16.70;;
25509;SDS011;13413;52.336;21.200;2023-02-04T12:14:26;22.60;;;10.50;;
25509;SDS011;13413;52.336;21.200;2023-02-04T12:17:23;31.50;;;16.40;;
25509;SDS011;13413;52.336;21.200;2023-02-04T12:20:17;15.70;;;8.40;;
25509;SDS011;13413;52.336;21.200;2023-02-04T12:23:11;16.00;;;9.10;;
25509;SDS011;13413;52.336;21.200;2023-02-04T12:26:05;16.30;;;7.80;;
25509;SDS011;13413;52.336;21.200;2023-02-04T12:28:59;18.10;;;8.70;;
25509;SDS011;13413;52.336;21.200;2023-02-04T12:31:53;27.50;;;13.50;;
25509;SDS011;13413;52.336;21.200;2023-02-04T12:34:47;19.00;;;8.40;;
25509;SDS011;13413;52.336;21.200;2023-02-04T12:37:42;15.10;;;8.60;;
25509;SDS011;13413;52.336;21.200;2023-02-04T12:40:36;19.60;;;10.30;;
25509;SDS011;13413;52.336;21.200;2023-02-04T12:43:31;14.20;;;8.00;;
25509;SDS011;13413;52.336;21.200;2023-02-04T12:46:24;13.10;;;6.80;;
25509;SDS011;13413;52.336;21.200;2023-02-04T12:49:31;23.50;;;10.40;;
25509;SDS011;13413;52.336;21.200;2023-02-04T12:52:25;26.40;;;12.10;;
25509;SDS011;13413;52.336;21.200;2023-02-04T12:55:18;22.30;;;10.80;;
25509;SDS011;13413;52.336;21.200;2023-02-04T12:58:12;11.90;;;5.70;;
25509;SDS011;13413;52.336;21.200;2023-02-04T13:01:06;12.50;;;6.60;;
25509;SDS011;13413;52.336;21.200;2023-02-04T13:04:00;18.40;;;9.40;;
25509;SDS011;13413;52.336;21.200;2023-02-04T13:06:54;27.80;;;11.60;;
25509;SDS011;13413;52.336;21.200;2023-02-04T13:09:48;28.50;;;14.70;;
25509;SDS011;13413;52.336;21.200;2023-02-04T13:12:42;19.00;;;8.90;;
25509;SDS011;13413;52.336;21.200;2023-02-04T13:15:36;10.60;;;5.60;;
25509;SDS011;13413;52.336;21.200;2023-02-04T13:18:33;16.60;;;6.90;;
25509;SDS011;13413;52.336;21.200;2023-02-04T13:21:26;19.90;;;9.60;;
25509;SDS011;13413;52.336;21.200;2023-02-04T13:24:21;28.90;;;11.40;;
25509;SDS011;13413;52.336;21.200;2023-02-04T13:27:15;30.00;;;10.70;;
25509;SDS011;13413;52.336;21.200;2023-02-04T13:30:10;26.80;;;12.00;;
25509;SDS011;13413;52.336;21.200;2023-02-04T13:41:12;15.10;;;7.10;;
25509;SDS011;13413;52.336;21.200;2023-02-04T13:44:06;10.80;;;6.20;;
25509;SDS011;13413;52.336;21.200;2023-02-04T13:46:59;13.40;;;6.30;;
25509;SDS011;13413;52.336;21.200;2023-02-04T13:49:53;29.20;;;14.90;;
25509;SDS011;13413;52.336;21.200;2023-02-04T13:52:48;21.40;;;11.40;;
25509;SDS011;13413;52.336;21.200;2023-02-04T13:55:41;26.60;;;14.30;;
25509;SDS011;13413;52.336;21.200;2023-02-04T13:58:36;19.20;;;11.70;;
25509;SDS011;13413;52.336;21.200;2023-02-04T14:01:33;20.20;;;8.80;;
25509;SDS011;13413;52.336;21.200;2023-02-04T14:04:27;21.00;;;11.60;;
25509;SDS011;13413;52.336;21.200;2023-02-04T14:07:20;13.00;;;7.50;;
25509;SDS011;13413;52.336;21.200;2023-02-04T14:10:15;14.70;;;9.10;;
25509;SDS011;13413;52.336;21.200;2023-02-04T14:13:09;23.30;;;10.50;;
25509;SDS011;13413;52.336;21.200;2023-02-04T14:16:03;17.10;;;9.10;;
25509;SDS011;13413;52.336;21.200;2023-02-04T14:18:58;14.80;;;8.60;;
25509;SDS011;13413;52.336;21.200;2023-02-04T14:21:51;17.80;;;9.40;;
25509;SDS011;13413;52.336;21.200;2023-02-04T14:24:46;16.20;;;9.10;;
25509;SDS011;13413;52.336;21.200;2023-02-04T14:27:39;13.60;;;7.80;;
25509;SDS011;13413;52.336;21.200;2023-02-04T14:30:34;15.80;;;9.70;;
25509;SDS011;13413;52.336;21.200;2023-02-04T14:33:28;15.00;;;8.80;;
25509;SDS011;13413;52.336;21.200;2023-02-04T14:36:21;11.70;;;7.00;;
25509;SDS011;13413;52.336;21.200;2023-02-04T14:39:16;10.80;;;6.30;;
25509;SDS011;13413;52.336;21.200;2023-02-04T14:42:10;12.00;;;6.50;;
25509;SDS011;13413;52.336;21.200;2023-02-04T14:45:04;8.70;;;5.10;;
25509;SDS011;13413;52.336;21.200;2023-02-04T14:47:59;11.80;;;5.20;;
25509;SDS011;13413;52.336;21.200;2023-02-04T14:54:05;18.40;;;8.80;;
25509;SDS011;13413;52.336;21.200;2023-02-04T14:56:59;15.30;;;8.70;;
25509;SDS011;13413;52.336;21.200;2023-02-04T14:59:54;26.50;;;14.10;;
25509;SDS011;13413;52.336;21.200;2023-02-04T15:02:48;23.70;;;11.70;;
25509;SDS011;13413;52.336;21.200;2023-02-04T15:05:42;33.20;;;14.70;;
25509;SDS011;13413;52.336;21.200;2023-02-04T15:08:36;25.60;;;12.70;;
25509;SDS011;13413;52.336;21.200;2023-02-04T15:11:30;25.80;;;12.50;;
25509;SDS011;13413;52.336;21.200;2023-02-04T15:14:24;27.40;;;13.80;;
25509;SDS011;13413;52.336;21.200;2023-02-04T15:17:18;40.00;;;22.50;;
25509;SDS011;13413;52.336;21.200;2023-02-04T15:23:34;15.30;;;8.30;;
25509;SDS011;13413;52.336;21.200;2023-02-04T15:26:28;15.40;;;8.30;;
25509;SDS011;13413;52.336;21.200;2023-02-04T15:29:22;24.10;;;12.40;;
25509;SDS011;13413;52.336;21.200;2023-02-04T15:32:16;16.90;;;9.70;;
25509;SDS011;13413;52.336;21.200;2023-02-04T15:35:10;22.70;;;10.90;;
25509;SDS011;13413;52.336;21.200;2023-02-04T15:38:04;19.00;;;9.00;;
25509;SDS011;13413;52.336;21.200;2023-02-04T15:40:58;16.40;;;8.00;;
25509;SDS011;13413;52.336;21.200;2023-02-04T15:43:52;23.60;;;10.60;;
25509;SDS011;13413;52.336;21.200;2023-02-04T15:46:46;25.50;;;12.20;;
25509;SDS011;13413;52.336;21.200;2023-02-04T15:49:40;21.30;;;10.30;;
25509;SDS011;13413;52.336;21.200;2023-02-04T15:52:34;15.50;;;8.00;;
25509;SDS011;13413;52.336;21.200;2023-02-04T16:01:46;34.00;;;15.40;;
25509;SDS011;13413;52.336;21.200;2023-02-04T16:04:39;48.60;;;22.50;;
25509;SDS011;13413;52.336;21.200;2023-02-04T16:07:31;71.30;;;38.50;;
25509;SDS011;13413;52.336;21.200;2023-02-04T16:10:24;38.50;;;18.10;;
25509;SDS011;13413;52.336;21.200;2023-02-04T16:13:17;31.90;;;16.20;;
25509;SDS011;13413;52.336;21.200;2023-02-04T16:16:10;24.20;;;12.80;;
25509;SDS011;13413;52.336;21.200;2023-02-04T16:19:04;31.50;;;17.00;;
25509;SDS011;13413;52.336;21.200;2023-02-04T16:21:56;31.60;;;16.40;;
25509;SDS011;13413;52.336;21.200;2023-02-04T16:24:49;31.60;;;16.20;;
25509;SDS011;13413;52.336;21.200;2023-02-04T16:27:42;51.10;;;22.70;;
25509;SDS011;13413;52.336;21.200;2023-02-04T16:30:35;39.30;;;17.50;;
25509;SDS011;13413;52.336;21.200;2023-02-04T16:33:28;29.50;;;16.50;;
25509;SDS011;13413;52.336;21.200;2023-02-04T16:36:22;34.00;;;18.50;;
25509;SDS011;13413;52.336;21.200;2023-02-04T16:39:14;28.40;;;17.00;;
25509;SDS011;13413;52.336;21.200;2023-02-04T16:42:08;33.50;;;19.00;;
25509;SDS011;13413;52.336;21.200;2023-02-04T16:45:01;29.00;;;14.50;;
25509;SDS011;13413;52.336;21.200;2023-02-04T16:47:54;31.90;;;17.20;;
25509;SDS011;13413;52.336;21.200;2023-02-04T16:50:47;38.20;;;18.10;;
25509;SDS011;13413;52.336;21.200;2023-02-04T16:53:40;47.50;;;21.80;;
25509;SDS011;13413;52.336;21.200;2023-02-04T16:56:32;39.30;;;19.40;;
25509;SDS011;13413;52.336;21.200;2023-02-04T16:59:25;41.20;;;20.70;;
25509;SDS011;13413;52.336;21.200;2023-02-04T17:02:18;43.30;;;19.70;;
25509;SDS011;13413;52.336;21.200;2023-02-04T17:08:17;50.30;;;24.80;;
25509;SDS011;13413;52.336;21.200;2023-02-04T17:11:09;38.60;;;20.30;;
25509;SDS011;13413;52.336;21.200;2023-02-04T17:14:02;38.60;;;20.30;;
25509;SDS011;13413;52.336;21.200;2023-02-04T17:16:56;39.30;;;20.70;;
25509;SDS011;13413;52.336;21.200;2023-02-04T17:19:49;39.00;;;19.70;;
25509;SDS011;13413;52.336;21.200;2023-02-04T17:22:42;41.60;;;18.90;;
25509;SDS011;13413;52.336;21.200;2023-02-04T17:25:35;80.10;;;36.80;;
25509;SDS011;13413;52.336;21.200;2023-02-04T17:28:27;56.60;;;26.10;;
25509;SDS011;13413;52.336;21.200;2023-02-04T17:31:20;51.00;;;22.80;;
25509;SDS011;13413;52.336;21.200;2023-02-04T17:34:13;36.80;;;18.70;;
25509;SDS011;13413;52.336;21.200;2023-02-04T17:37:05;30.00;;;14.00;;
25509;SDS011;13413;52.336;21.200;2023-02-04T17:39:58;31.20;;;15.30;;
25509;SDS011;13413;52.336;21.200;2023-02-04T17:42:51;25.90;;;12.00;;
25509;SDS011;13413;52.336;21.200;2023-02-04T17:57:08;58.90;;;26.90;;
25509;SDS011;13413;52.336;21.200;2023-02-04T18:00:11;52.30;;;25.40;;
25509;SDS011;13413;52.336;21.200;2023-02-04T18:03:09;37.80;;;19.40;;
25509;SDS011;13413;52.336;21.200;2023-02-04T18:06:13;38.10;;;17.80;;
25509;SDS011;13413;52.336;21.200;2023-02-04T18:09:12;39.90;;;18.60;;
25509;SDS011;13413;52.336;21.200;2023-02-04T18:12:12;40.20;;;16.80;;
25509;SDS011;13413;52.336;21.200;2023-02-04T18:15:12;46.80;;;21.40;;
25509;SDS011;13413;52.336;21.200;2023-02-04T18:21:27;38.70;;;19.50;;
25509;SDS011;13413;52.336;21.200;2023-02-04T18:27:38;21.90;;;12.10;;
25509;SDS011;13413;52.336;21.200;2023-02-04T18:30:33;31.50;;;16.80;;
25509;SDS011;13413;52.336;21.200;2023-02-04T18:36:22;29.80;;;14.90;;
25509;SDS011;13413;52.336;21.200;2023-02-04T18:39:17;25.70;;;15.30;;
25509;SDS011;13413;52.336;21.200;2023-02-04T18:42:16;25.70;;;12.30;;
25509;SDS011;13413;52.336;21.200;2023-02-04T18:45:21;30.40;;;14.20;;
25509;SDS011;13413;52.336;21.200;2023-02-04T18:51:47;29.50;;;15.10;;
25509;SDS011;13413;52.336;21.200;2023-02-04T18:54:44;34.40;;;16.80;;
25509;SDS011;13413;52.336;21.200;2023-02-04T18:57:41;37.20;;;18.40;;